createdAt,value
2023-08-07T00:02:26.809Z,99890.06
2023-08-07T00:04:53.940Z,99873.50
2023-08-07T00:07:20.888Z,99883.16
2023-08-07T00:09:47.858Z,99877.94
2023-08-07T00:12:14.786Z,99889.38
2023-08-07T00:14:41.770Z,99885.09
2023-08-07T00:17:09.533Z,99875.50
2023-08-07T00:19:36.532Z,99874.63
2023-08-07T00:22:03.457Z,99877.31
2023-08-07T00:24:30.380Z,99877.31
2023-08-07T00:26:57.812Z,99874.69
2023-08-07T00:29:25.055Z,99861.50
2023-08-07T00:31:52.001Z,99860.63
2023-08-07T00:34:18.956Z,99854.44
2023-08-07T00:36:46.092Z,99849.16
2023-08-07T00:39:13.021Z,99853.56
2023-08-07T00:41:42.582Z,99840.47
2023-08-07T00:44:09.653Z,99847.44
2023-08-07T00:46:37.853Z,99827.34
2023-08-07T00:49:05.169Z,99833.34
2023-08-07T00:51:32.707Z,99832.41
2023-08-07T00:54:01.984Z,99839.38
2023-08-07T00:56:29.634Z,99835.94
2023-08-07T00:58:58.960Z,99852.44
2023-08-07T01:01:26.757Z,99851.56
2023-08-07T01:03:53.948Z,99849.75
2023-08-07T01:06:20.877Z,99840.09
2023-08-07T01:08:48.507Z,99829.59
2023-08-07T01:11:40.124Z,99835.75
2023-08-07T01:14:34.789Z,99834.00
2023-08-07T01:17:07.722Z,99844.50
2023-08-07T01:19:36.463Z,99838.34
2023-08-07T01:22:17.454Z,99832.22
2023-08-07T01:24:51.635Z,99838.38
2023-08-07T01:27:18.452Z,99834.72
2023-08-07T01:30:00.410Z,99835.56
2023-08-07T01:32:53.114Z,99828.59
2023-08-07T01:35:26.375Z,99822.44
2023-08-07T01:37:57.034Z,99826.78
2023-08-07T01:40:24.816Z,99827.59
2023-08-07T01:42:54.547Z,99829.31
2023-08-07T01:45:26.201Z,99824.84
2023-08-07T01:47:53.745Z,99816.13
2023-08-07T01:50:22.114Z,99812.50
2023-08-07T01:52:49.111Z,99812.44
2023-08-07T01:55:18.060Z,99811.56
2023-08-07T01:57:51.242Z,99809.78
2023-08-07T02:00:18.535Z,99802.81
2023-08-07T02:02:47.793Z,99805.38
2023-08-07T02:05:15.406Z,99811.59
2023-08-07T02:07:42.914Z,99807.16
2023-08-07T02:10:10.412Z,99793.09
2023-08-07T02:12:37.427Z,99794.88
2023-08-07T02:15:04.956Z,99780.06
2023-08-07T02:17:32.338Z,99787.00
2023-08-07T02:19:59.353Z,99789.69
2023-08-07T02:22:26.457Z,99794.03
2023-08-07T02:24:53.453Z,99781.75
2023-08-07T02:27:20.446Z,99779.19
2023-08-07T02:29:47.929Z,99775.66
2023-08-07T02:32:14.895Z,99776.56
2023-08-07T02:34:41.839Z,99778.31
2023-08-07T02:37:08.771Z,99776.59
2023-08-07T02:39:37.085Z,99775.75
2023-08-07T02:42:04.393Z,99785.34
2023-08-07T02:44:31.356Z,99785.34
2023-08-07T02:46:58.482Z,99798.47
2023-08-07T02:49:26.027Z,99798.47
2023-08-07T02:51:53.492Z,99793.22
2023-08-07T02:54:20.435Z,99792.31
2023-08-07T02:56:47.497Z,99791.41
2023-08-07T02:59:14.447Z,99796.66
2023-08-07T03:01:41.532Z,99792.25
2023-08-07T03:04:08.483Z,99791.38
2023-08-07T03:06:35.471Z,99789.59
2023-08-07T03:09:02.445Z,99793.03
2023-08-07T03:11:29.435Z,99790.47
2023-08-07T03:13:56.469Z,99794.75
2023-08-07T03:16:23.439Z,99795.59
2023-08-07T03:18:50.538Z,99790.28
2023-08-07T03:21:17.513Z,99783.28
2023-08-07T03:23:44.578Z,99789.28
2023-08-07T03:28:43.754Z,99777.88
2023-08-07T03:31:10.830Z,99792.72
2023-08-07T03:33:38.268Z,99790.91
2023-08-07T03:36:06.054Z,99789.09
2023-08-07T03:38:34.098Z,99786.41
2023-08-07T03:41:01.060Z,99773.22
2023-08-07T03:43:29.852Z,99777.66
2023-08-07T03:46:03.229Z,99777.47
2023-08-07T03:48:32.010Z,99774.72
2023-08-07T03:51:09.422Z,99775.53
2023-08-07T03:53:41.242Z,99772.00
2023-08-07T03:56:08.248Z,99771.94
2023-08-07T03:58:36.405Z,99772.75
2023-08-07T04:01:04.206Z,99777.94
2023-08-07T04:03:32.215Z,99766.59
2023-08-07T04:06:01.690Z,99772.50
2023-08-07T04:08:28.693Z,99768.09
2023-08-07T04:11:06.254Z,99773.28
2023-08-07T04:13:35.063Z,99768.81
2023-08-07T04:16:05.285Z,99776.66
2023-08-07T04:18:33.512Z,99775.75
2023-08-07T04:21:02.814Z,99776.47
2023-08-07T04:23:29.793Z,99771.16
2023-08-07T04:25:57.050Z,99770.19
2023-08-07T04:28:25.533Z,99759.56
2023-08-07T04:30:53.585Z,99752.53
2023-08-07T04:33:21.514Z,99765.53
2023-08-07T04:35:48.947Z,99757.81
2023-08-07T04:38:17.524Z,99777.78
2023-08-07T04:40:48.798Z,99779.44
2023-08-07T04:43:17.728Z,99770.59
2023-08-07T04:45:46.276Z,99785.41
2023-08-07T04:48:14.306Z,99787.09
2023-08-07T04:50:41.881Z,99780.06
2023-08-07T04:53:08.906Z,99783.84
2023-08-07T04:55:36.048Z,99803.72
2023-08-07T04:58:03.027Z,99808.09
2023-08-07T05:00:30.351Z,99794.88
2023-08-07T05:02:57.416Z,99802.75
2023-08-07T05:05:24.937Z,99806.31
2023-08-07T05:07:52.237Z,99794.94
2023-08-07T05:10:19.416Z,99785.28
2023-08-07T05:12:46.411Z,99780.84
2023-08-07T05:15:13.385Z,99776.44
2023-08-07T05:17:40.558Z,99783.47
2023-08-07T05:20:09.381Z,99794.84
2023-08-07T05:22:36.346Z,99791.34
2023-08-07T05:25:03.272Z,99788.72
2023-08-07T05:27:30.204Z,99788.66
2023-08-07T05:29:57.118Z,99796.53
2023-08-07T05:32:24.110Z,99799.16
2023-08-07T05:34:51.698Z,99801.03
2023-08-07T05:37:18.696Z,99809.75
2023-08-07T05:39:45.604Z,99799.25
2023-08-07T05:42:13.386Z,99805.50
2023-08-07T05:44:40.339Z,99809.88
2023-08-07T05:47:08.152Z,99809.88
2023-08-07T05:49:35.080Z,99822.25
2023-08-07T05:52:02.137Z,99821.41
2023-08-07T05:54:29.086Z,99815.31
2023-08-07T05:56:56.032Z,99809.22
2023-08-07T05:59:22.963Z,99820.69
2023-08-07T06:01:49.947Z,99818.91
2023-08-07T06:04:16.956Z,99819.88
2023-08-07T06:06:44.046Z,99813.66
2023-08-07T06:09:11.124Z,99811.00
2023-08-07T06:11:38.218Z,99818.88
2023-08-07T06:14:05.205Z,99816.38
2023-08-07T06:16:32.211Z,99821.50
2023-08-07T06:18:59.874Z,99813.78
2023-08-07T06:21:29.345Z,99813.66
2023-08-07T06:23:56.438Z,99813.75
2023-08-07T06:26:23.514Z,99812.94
2023-08-07T06:28:50.448Z,99812.03
2023-08-07T06:31:19.455Z,99807.81
2023-08-07T06:33:46.472Z,99806.84
2023-08-07T06:36:13.474Z,99812.13
2023-08-07T06:38:40.417Z,99814.78
2023-08-07T06:41:07.379Z,99809.53
2023-08-07T06:43:34.336Z,99815.59
2023-08-07T06:46:01.337Z,99812.97
2023-08-07T06:48:28.278Z,99824.44
2023-08-07T06:50:55.202Z,99828.63
2023-08-07T06:53:22.208Z,99832.13
2023-08-07T06:55:49.235Z,99840.03
2023-08-07T06:58:16.182Z,99836.44
2023-08-07T07:00:43.149Z,99838.13
2023-08-07T07:03:11.072Z,99837.22
2023-08-07T07:05:38.070Z,99840.72
2023-08-07T07:08:05.365Z,99847.72
2023-08-07T07:10:33.101Z,99847.72
2023-08-07T07:13:00.219Z,99843.38
2023-08-07T07:15:27.267Z,99846.94
2023-08-07T07:17:54.242Z,99841.69
2023-08-07T07:20:21.483Z,99841.69
2023-08-07T07:22:48.626Z,99840.81
2023-08-07T07:25:15.619Z,99844.31
2023-08-07T07:27:42.585Z,99837.28
2023-08-07T07:30:10.275Z,99847.78
2023-08-07T07:32:37.398Z,99839.06
2023-08-07T07:35:05.064Z,99843.44
2023-08-07T07:37:32.751Z,99847.78
2023-08-07T07:39:59.752Z,99852.19
2023-08-07T07:42:26.856Z,99850.31
2023-08-07T07:44:53.788Z,99848.50
2023-08-07T07:47:21.672Z,99846.72
2023-08-07T07:49:52.105Z,99845.91
2023-08-07T07:52:19.027Z,99849.47
2023-08-07T07:54:45.935Z,99853.78
2023-08-07T07:57:12.896Z,99853.78
2023-08-07T07:59:39.817Z,99852.78
2023-08-07T08:02:07.181Z,99850.09
2023-08-07T08:04:36.476Z,99855.31
2023-08-07T08:07:04.777Z,99851.06
2023-08-07T08:09:31.736Z,99872.75
2023-08-07T08:11:58.935Z,99876.09
2023-08-07T08:14:26.079Z,99888.25
2023-08-07T08:16:52.985Z,99889.88
2023-08-07T08:19:19.897Z,99890.56
2023-08-07T08:21:46.815Z,99888.78
2023-08-07T08:24:13.800Z,99888.69
2023-08-07T08:26:40.849Z,99892.13
2023-08-07T08:29:09.113Z,99902.31
2023-08-07T08:31:36.312Z,99904.78
2023-08-07T08:34:04.806Z,99911.59
2023-08-07T08:36:31.749Z,99907.88
2023-08-07T08:38:58.678Z,99902.50
2023-08-07T08:41:26.530Z,99910.16
2023-08-07T08:43:55.114Z,99914.41
2023-08-07T08:46:25.192Z,99910.75
2023-08-07T08:48:57.782Z,99921.16
2023-08-07T08:51:26.365Z,99920.19
2023-08-07T08:53:57.272Z,99919.22
2023-08-07T08:56:24.676Z,99916.44
2023-08-07T08:58:52.310Z,99919.75
2023-08-07T09:01:19.857Z,99930.16
2023-08-07T09:03:47.058Z,99929.13
2023-08-07T09:06:14.855Z,99921.97
2023-08-07T09:08:44.687Z,99931.47
2023-08-07T09:11:13.754Z,99928.72
2023-08-07T09:13:44.185Z,99930.38
2023-08-07T09:16:12.868Z,99932.09
2023-08-07T09:18:40.249Z,99934.66
2023-08-07T09:21:07.389Z,99935.34
2023-08-07T09:23:34.297Z,99934.34
2023-08-07T09:26:05.612Z,99939.47
2023-08-07T09:28:33.843Z,99939.31
2023-08-07T09:31:03.269Z,99947.88
2023-08-07T09:33:31.532Z,99944.19
2023-08-07T09:36:00.301Z,99938.88
2023-08-07T09:38:33.863Z,99939.47
2023-08-07T09:41:05.163Z,99934.13
2023-08-07T09:43:36.701Z,99939.81
2023-08-07T09:46:08.148Z,99947.56
2023-08-07T09:48:43.406Z,99951.66
2023-08-07T09:51:11.249Z,99947.91
2023-08-07T09:53:38.511Z,99952.22
2023-08-07T09:56:05.657Z,99952.81
2023-08-07T09:58:32.686Z,99945.63
2023-08-07T10:01:05.464Z,99949.72
2023-08-07T10:03:33.082Z,99952.19
2023-08-07T10:06:00.702Z,99950.22
2023-08-07T10:08:29.176Z,99956.16
2023-08-07T10:10:56.109Z,99957.75
2023-08-07T10:13:37.830Z,99961.97
2023-08-07T10:16:06.840Z,99945.78
2023-08-07T10:18:34.459Z,99959.63
2023-08-07T10:21:04.600Z,99954.09
2023-08-07T10:23:36.021Z,99951.34
2023-08-07T10:26:09.927Z,99959.72
2023-08-07T10:28:40.586Z,99963.84
2023-08-07T10:31:12.196Z,99951.31
2023-08-07T10:33:39.505Z,99947.63
2023-08-07T10:36:11.395Z,99950.13
2023-08-07T10:38:38.833Z,99947.28
2023-08-07T10:41:10.952Z,99936.72
2023-08-07T10:43:46.054Z,99959.25
2023-08-07T10:46:24.100Z,99958.94
2023-08-07T10:49:01.065Z,99955.94
2023-08-07T10:51:34.123Z,99956.44
2023-08-07T10:54:03.178Z,99959.72
2023-08-07T10:56:38.593Z,99954.13
2023-08-07T10:59:13.200Z,99953.81
2023-08-07T11:01:40.093Z,99950.75
2023-08-07T11:04:09.841Z,99959.28
2023-08-07T11:06:38.699Z,99952.66
2023-08-07T11:09:09.616Z,99951.38
2023-08-07T11:11:43.060Z,99946.94
2023-08-07T11:14:12.885Z,99959.75
2023-08-07T11:16:40.032Z,99948.91
2023-08-07T11:19:07.224Z,99958.41
2023-08-07T11:21:34.894Z,99955.84
2023-08-07T11:24:02.624Z,99955.16
2023-08-07T11:26:29.912Z,99959.38
2023-08-07T11:28:57.430Z,99944.25
2023-08-07T11:31:26.275Z,99950.44
2023-08-07T11:33:54.149Z,99952.72
2023-08-07T11:36:21.077Z,99944.56
2023-08-07T11:38:48.063Z,99951.41
2023-08-07T11:41:18.677Z,99950.31
2023-08-07T11:43:46.078Z,99950.16
2023-08-07T11:46:15.952Z,99963.16
2023-08-07T11:48:45.103Z,99954.91
2023-08-07T11:51:12.292Z,99954.69
2023-08-07T11:53:41.470Z,99956.31
2023-08-07T11:56:16.393Z,99950.16
2023-08-07T11:58:47.541Z,99950.84
2023-08-07T12:01:27.157Z,99962.22
2023-08-07T12:04:09.801Z,99953.38
2023-08-07T12:06:40.216Z,99968.16
2023-08-07T12:09:13.803Z,99969.94
2023-08-07T12:11:40.887Z,99968.16
2023-08-07T12:14:08.879Z,99970.78
2023-08-07T12:16:36.940Z,99967.28
2023-08-07T12:19:05.193Z,99963.88
2023-08-07T12:21:34.463Z,99956.47
2023-08-07T12:24:01.701Z,99957.09
2023-08-07T12:26:28.766Z,99959.41
2023-08-07T12:28:55.700Z,99960.81
2023-08-07T12:31:22.887Z,99963.03
2023-08-07T12:33:50.043Z,99960.91
2023-08-07T12:38:47.566Z,99962.66
2023-08-07T12:43:45.282Z,99975.66
2023-08-07T12:48:42.044Z,99979.09
2023-08-07T12:51:09.105Z,99975.41
2023-08-07T12:53:36.223Z,99994.91
2023-08-07T12:56:04.154Z,99997.72
2023-08-07T12:58:31.184Z,100008.47
2023-08-07T13:00:58.513Z,100011.28
2023-08-07T13:03:25.675Z,100009.66
2023-08-07T13:05:52.654Z,100011.75
2023-08-07T13:08:19.664Z,100022.34
2023-08-07T13:10:49.761Z,100028.78
2023-08-07T13:13:17.246Z,100037.88
2023-08-07T13:15:44.133Z,100039.06
2023-08-07T13:18:11.814Z,100053.66
2023-08-07T13:20:38.757Z,100046.78
2023-08-07T13:23:07.320Z,100055.13
2023-08-07T13:25:34.369Z,100053.72
2023-08-07T13:28:02.053Z,100066.94
2023-08-07T13:30:34.846Z,100061.75
2023-08-07T13:33:02.905Z,100050.22
2023-08-07T13:35:30.599Z,100063.00
2023-08-07T13:37:57.536Z,100073.19
2023-08-07T13:40:24.526Z,100060.38
2023-08-07T13:42:51.504Z,100067.16
2023-08-07T13:45:18.441Z,100069.41
2023-08-07T13:47:45.431Z,100076.97
2023-08-07T13:50:14.109Z,100074.81
2023-08-07T13:52:41.177Z,100079.94
2023-08-07T13:55:10.147Z,100090.44
2023-08-07T13:57:37.369Z,100096.69
2023-08-07T14:00:04.965Z,100103.00
2023-08-07T14:02:34.266Z,100109.38
2023-08-07T14:05:01.209Z,100126.31
2023-08-07T14:07:28.129Z,100131.13
2023-08-07T14:09:55.057Z,100128.88
2023-08-07T14:12:21.955Z,100131.94
2023-08-07T14:14:48.850Z,100131.41
2023-08-07T14:17:15.727Z,100126.94
2023-08-07T14:19:42.642Z,100139.03
2023-08-07T14:22:09.585Z,100139.66
2023-08-07T14:24:36.562Z,100138.53
2023-08-07T14:27:03.695Z,100135.47
2023-08-07T14:29:30.588Z,100126.53
2023-08-07T14:31:57.488Z,100136.13
2023-08-07T14:34:24.380Z,100142.19
2023-08-07T14:36:51.611Z,100143.16
2023-08-07T14:39:18.496Z,100153.75
2023-08-07T14:41:45.830Z,100145.69
2023-08-07T14:44:12.752Z,100149.97
2023-08-07T14:46:39.744Z,100151.66
2023-08-07T14:49:06.807Z,100159.50
2023-08-07T14:51:33.744Z,100153.41
2023-08-07T14:54:00.665Z,100144.69
2023-08-07T14:56:27.607Z,100145.56
2023-08-07T14:58:54.543Z,100158.81
2023-08-07T15:01:21.591Z,100162.09
2023-08-07T15:03:48.639Z,100163.78
2023-08-07T15:06:15.860Z,100153.97
2023-08-07T15:08:42.807Z,100135.19
2023-08-07T15:11:09.752Z,100162.38
2023-08-07T15:13:36.914Z,100162.09
2023-08-07T15:16:03.898Z,100145.00
2023-08-07T15:18:30.871Z,100155.22
2023-08-07T15:20:59.395Z,100146.19
2023-08-07T15:23:26.363Z,100149.44
2023-08-07T15:25:53.858Z,100143.97
2023-08-07T15:28:21.193Z,100135.81
2023-08-07T15:30:50.422Z,100138.38
2023-08-07T15:33:18.522Z,100132.16
2023-08-07T15:35:45.803Z,100133.94
2023-08-07T15:38:12.783Z,100140.09
2023-08-07T15:40:41.205Z,100150.53
2023-08-07T15:43:11.197Z,100150.47
2023-08-07T15:45:38.245Z,100148.66
2023-08-07T15:48:06.030Z,100137.34
2023-08-07T15:50:37.703Z,100142.66
2023-08-07T15:53:05.168Z,100140.88
2023-08-07T15:55:34.987Z,100148.06
2023-08-07T15:58:03.594Z,100144.63
2023-08-07T16:00:34.815Z,100152.56
2023-08-07T16:03:06.774Z,100155.28
2023-08-07T16:05:35.827Z,100160.81
2023-08-07T16:08:04.041Z,100174.38
2023-08-07T16:10:31.738Z,100156.06
2023-08-07T16:12:59.881Z,100163.25
2023-08-07T16:15:27.213Z,100175.81
2023-08-07T16:17:54.192Z,100185.06
2023-08-07T16:20:21.387Z,100179.25
2023-08-07T16:22:48.475Z,100187.25
2023-08-07T16:25:15.543Z,100178.69
2023-08-07T16:27:42.595Z,100191.63
2023-08-07T16:30:09.912Z,100192.56
2023-08-07T16:32:39.046Z,100193.34
2023-08-07T16:35:07.351Z,100206.66
2023-08-07T16:37:34.297Z,100202.38
2023-08-07T16:40:01.720Z,100209.47
2023-08-07T16:42:28.664Z,100218.44
2023-08-07T16:44:55.792Z,100230.03
2023-08-07T16:47:23.751Z,100228.50
2023-08-07T16:49:51.697Z,100236.34
2023-08-07T16:52:18.825Z,100241.44
2023-08-07T16:54:49.233Z,100240.41
2023-08-07T16:57:16.716Z,100230.81
2023-08-07T16:59:43.696Z,100245.09
2023-08-07T17:02:10.971Z,100247.66
2023-08-07T17:04:38.891Z,100248.69
2023-08-07T17:07:06.950Z,100258.28
2023-08-07T17:09:33.916Z,100252.88
2023-08-07T17:12:00.991Z,100249.53
2023-08-07T17:14:27.917Z,100253.97
2023-08-07T17:16:55.169Z,100248.16
2023-08-07T17:19:22.636Z,100254.69
2023-08-07T17:21:50.657Z,100251.56
2023-08-07T17:24:17.656Z,100265.13
2023-08-07T17:26:44.570Z,100268.22
2023-08-07T17:29:11.536Z,100266.00
2023-08-07T17:31:38.465Z,100268.22
2023-08-07T17:34:05.457Z,100265.28
2023-08-07T17:36:32.381Z,100258.81
2023-08-07T17:39:00.869Z,100260.38
2023-08-07T17:41:29.739Z,100265.38
2023-08-07T17:43:56.765Z,100271.00
2023-08-07T17:46:23.741Z,100273.06
2023-08-07T17:48:50.690Z,100276.75
2023-08-07T17:51:17.614Z,100276.97
2023-08-07T17:53:44.557Z,100275.41
2023-08-07T17:56:11.486Z,100290.44
2023-08-07T17:58:38.434Z,100297.50
2023-08-07T18:01:05.472Z,100301.09
2023-08-07T18:03:32.478Z,100298.53
2023-08-07T18:05:59.422Z,100296.03
2023-08-07T18:08:26.376Z,100282.03
2023-08-07T18:10:53.423Z,100295.41
2023-08-07T18:13:20.404Z,100302.56
2023-08-07T18:15:47.349Z,100297.47
2023-08-07T18:18:14.351Z,100306.53
2023-08-07T18:20:41.317Z,100293.69
2023-08-07T18:23:08.295Z,100309.69
2023-08-07T18:25:35.276Z,100309.50
2023-08-07T18:28:02.253Z,100311.22
2023-08-07T18:30:29.208Z,100321.97
2023-08-07T18:32:56.217Z,100323.94
2023-08-07T18:35:23.202Z,100319.66
2023-08-07T18:37:50.329Z,100324.16
2023-08-07T18:40:17.465Z,100331.22
2023-08-07T18:42:44.506Z,100326.91
2023-08-07T18:45:11.616Z,100315.53
2023-08-07T18:47:39.073Z,100335.94
2023-08-07T18:50:07.414Z,100336.06
2023-08-07T18:52:34.396Z,100338.78
2023-08-07T18:55:01.332Z,100343.25
2023-08-07T18:57:28.283Z,100339.88
2023-08-07T18:59:55.210Z,100342.66
2023-08-07T19:02:22.156Z,100350.75
2023-08-07T19:04:49.094Z,100358.78
2023-08-07T19:07:16.038Z,100354.53
2023-08-07T19:09:43.114Z,100344.25
2023-08-07T19:12:10.251Z,100347.88
2023-08-07T19:14:37.244Z,100349.03
2023-08-07T19:17:08.331Z,100353.53
2023-08-07T19:19:35.985Z,100361.59
2023-08-07T19:22:04.598Z,100362.69
2023-08-07T19:24:31.739Z,100363.44
2023-08-07T19:26:59.013Z,100365.34
2023-08-07T19:29:26.293Z,100378.75
2023-08-07T19:31:53.513Z,100379.72
2023-08-07T19:34:20.627Z,100377.16
2023-08-07T19:36:50.551Z,100378.25
2023-08-07T19:39:22.890Z,100378.38
2023-08-07T19:41:49.912Z,100374.34
2023-08-07T19:44:16.823Z,100386.72
2023-08-07T19:46:43.735Z,100380.81
2023-08-07T19:49:10.670Z,100394.03
2023-08-07T19:51:37.592Z,100393.28
2023-08-07T19:54:04.658Z,100387.31
2023-08-07T19:56:35.213Z,100381.31
2023-08-07T19:59:05.322Z,100375.28
2023-08-07T20:01:32.914Z,100378.94
2023-08-07T20:04:00.171Z,100375.56
2023-08-07T20:06:35.811Z,100380.13
2023-08-07T20:09:02.811Z,100369.84
2023-08-07T20:11:39.031Z,100367.31
2023-08-07T20:14:06.201Z,100381.50
2023-08-07T20:16:33.284Z,100379.00
2023-08-07T20:19:00.634Z,100374.66
2023-08-07T20:21:27.991Z,100386.06
2023-08-07T20:23:55.057Z,100380.84
2023-08-07T20:26:22.599Z,100381.72
2023-08-07T20:28:49.494Z,100372.03
2023-08-07T20:31:16.661Z,100380.78
2023-08-07T20:33:43.664Z,100378.25
2023-08-07T20:36:10.599Z,100371.28
2023-08-07T20:38:37.533Z,100366.97
2023-08-07T20:41:04.532Z,100366.97
2023-08-07T20:43:31.437Z,100359.97
2023-08-07T20:45:58.377Z,100363.44
2023-08-07T20:48:25.325Z,100362.59
2023-08-07T20:50:52.886Z,100352.13
2023-08-07T20:53:19.829Z,100347.81
2023-08-07T20:55:46.790Z,100347.84
2023-08-07T20:58:13.727Z,100355.00
2023-08-07T21:00:40.690Z,100356.81
2023-08-07T21:03:07.716Z,100358.66
2023-08-07T21:05:34.702Z,100358.00
2023-08-07T21:08:01.615Z,100345.06
2023-08-07T21:10:28.659Z,100346.81
2023-08-07T21:12:55.593Z,100362.75
2023-08-07T21:15:22.632Z,100343.56
2023-08-07T21:17:49.585Z,100338.44
2023-08-07T21:20:16.633Z,100349.03
2023-08-07T21:22:43.580Z,100347.41
2023-08-07T21:25:10.521Z,100355.34
2023-08-07T21:27:37.459Z,100366.78
2023-08-07T21:30:04.773Z,100372.16
2023-08-07T21:32:31.731Z,100363.44
2023-08-07T21:34:58.678Z,100367.84
2023-08-07T21:37:33.144Z,100359.03
2023-08-07T21:40:00.697Z,100363.34
2023-08-07T21:42:29.408Z,100370.38
2023-08-07T21:44:56.450Z,100363.38
2023-08-07T21:47:23.401Z,100366.88
2023-08-07T21:49:50.432Z,100367.78
2023-08-07T21:52:17.343Z,100373.16
2023-08-07T21:54:44.259Z,100370.59
2023-08-07T21:57:11.218Z,100370.50
2023-08-07T21:59:38.140Z,100378.41
2023-08-07T22:02:05.406Z,100377.66
2023-08-07T22:04:32.371Z,100371.69
2023-08-07T22:06:59.315Z,100374.41
2023-08-07T22:09:26.340Z,100365.75
2023-08-07T22:11:53.245Z,100379.06
2023-08-07T22:14:20.175Z,100387.03
2023-08-07T22:16:48.137Z,100393.25
2023-08-07T22:19:15.086Z,100394.28
2023-08-07T22:21:42.011Z,100387.34
2023-08-07T22:24:08.978Z,100400.59
2023-08-07T22:26:35.911Z,100391.09
2023-08-07T22:29:02.846Z,100386.69
2023-08-07T22:31:29.837Z,100398.06
2023-08-07T22:33:56.796Z,100408.59
2023-08-07T22:36:23.964Z,100398.94
2023-08-07T22:38:50.867Z,100410.28
2023-08-07T22:41:17.806Z,100409.34
2023-08-07T22:43:44.726Z,100399.66
2023-08-07T22:46:11.740Z,100411.00
2023-08-07T22:48:38.739Z,100409.31
2023-08-07T22:51:07.034Z,100410.19
2023-08-07T22:53:34.005Z,100402.38
2023-08-07T22:56:01.200Z,100399.84
2023-08-07T22:58:28.121Z,100397.31
2023-08-07T23:00:55.049Z,100396.47
2023-08-07T23:03:22.080Z,100393.88
2023-08-07T23:05:49.302Z,100386.06
2023-08-07T23:08:16.271Z,100397.47
2023-08-07T23:10:43.241Z,100394.03
2023-08-07T23:13:10.180Z,100392.34
2023-08-07T23:15:38.517Z,100389.78
2023-08-07T23:18:06.089Z,100392.47
2023-08-07T23:20:33.745Z,100382.97
2023-08-07T23:23:00.677Z,100383.03
2023-08-07T23:25:27.602Z,100386.66
2023-08-07T23:27:54.521Z,100379.78
2023-08-07T23:30:21.741Z,100385.09
2023-08-07T23:32:48.745Z,100378.09
2023-08-07T23:35:15.766Z,100381.66
2023-08-07T23:37:42.828Z,100388.69
2023-08-07T23:40:10.310Z,100379.97
2023-08-07T23:42:37.226Z,100373.03
2023-08-07T23:45:05.093Z,100373.09
2023-08-07T23:47:32.088Z,100367.88
2023-08-07T23:49:59.079Z,100364.38
2023-08-07T23:52:26.050Z,100364.41
2023-08-07T23:54:52.972Z,100366.19
2023-08-07T23:57:19.888Z,100381.94
2023-08-07T23:59:46.791Z,100373.22
